Time;durP1;ratioP1;P1;durP2;ratioP2;P2;SDS_P1;SDS_P2;PMS_P1;PMS_P2;Temp;Humidity;BMP_temperature;BMP_pressure;BME280_temperature;BME280_humidity;BME280_pressure;Samples;Min_cycle;Max_cycle;Signal;HPM_P1;HPM_P2
2022/03/11 00:02:03;;;;;;;11.10;7.55;;;9.00;42.40;;;;;;5051925;28;20479;-72
2022/03/11 00:04:28;;;;;;;10.93;7.68;;;8.90;42.30;;;;;;5051193;28;20078;-72
2022/03/11 00:06:54;;;;;;;11.90;8.00;;;8.90;42.60;;;;;;5049232;28;20029;-72
2022/03/11 00:09:20;;;;;;;11.10;7.78;;;8.90;42.80;;;;;;5050616;28;20028;-72
2022/03/11 00:11:45;;;;;;;10.50;7.00;;;8.90;43.10;;;;;;5051134;28;20505;-72
2022/03/11 00:14:11;;;;;;;11.82;7.75;;;8.80;43.00;;;;;;5049105;28;20535;-72
2022/03/11 00:16:36;;;;;;;10.63;6.95;;;8.80;43.30;;;;;;5052120;28;20031;-72
2022/03/11 00:19:02;;;;;;;10.90;7.97;;;8.80;43.30;;;;;;5052241;28;20029;-72
2022/03/11 00:21:27;;;;;;;11.35;7.32;;;8.70;43.50;;;;;;5051507;28;20115;-72
2022/03/11 00:23:52;;;;;;;11.82;8.15;;;8.70;43.70;;;;;;5051836;28;20024;-72
2022/03/11 00:26:18;;;;;;;13.38;8.88;;;8.60;43.80;;;;;;5050430;28;20025;-72
2022/03/11 00:28:43;;;;;;;13.18;8.63;;;8.60;44.10;;;;;;5051903;28;20025;-72
2022/03/11 00:31:09;;;;;;;12.70;9.02;;;8.60;44.20;;;;;;5051471;28;20102;-72
2022/03/11 00:33:35;;;;;;;12.75;8.55;;;8.50;44.40;;;;;;5051959;28;20017;-72
2022/03/11 00:36:01;;;;;;;12.82;8.57;;;8.50;44.30;;;;;;5044129;28;20120;-72
2022/03/11 00:38:27;;;;;;;12.95;8.43;;;8.50;44.60;;;;;;5051667;28;20037;-71
2022/03/11 00:40:56;;;;;;;14.05;8.80;;;8.40;44.90;;;;;;5050564;28;20108;-72
2022/03/11 00:43:23;;;;;;;14.10;8.52;;;8.40;45.10;;;;;;5049746;28;20043;-72
2022/03/11 00:45:49;;;;;;;13.95;8.30;;;8.30;45.10;;;;;;5051374;28;20071;-72
2022/03/11 00:48:14;;;;;;;13.45;8.88;;;8.30;45.20;;;;;;5051637;28;20399;-72
2022/03/11 00:50:40;;;;;;;10.95;7.63;;;8.30;45.50;;;;;;5047795;28;20523;-72
2022/03/11 00:53:05;;;;;;;16.45;9.00;;;8.30;45.70;;;;;;5051493;28;20021;-72
2022/03/11 00:55:31;;;;;;;14.30;9.60;;;8.20;45.90;;;;;;5047113;28;20025;-72
2022/03/11 00:57:56;;;;;;;13.85;9.07;;;8.20;46.20;;;;;;5050342;28;20029;-72
2022/03/11 01:00:22;;;;;;;16.15;10.00;;;8.20;46.20;;;;;;5047043;28;20032;-72
2022/03/11 01:02:48;;;;;;;14.65;8.75;;;8.10;46.30;;;;;;5051311;28;20179;-72
2022/03/11 01:05:13;;;;;;;14.30;9.80;;;8.10;46.50;;;;;;5050855;28;20029;-72
2022/03/11 01:07:39;;;;;;;14.88;9.65;;;8.10;46.50;;;;;;5050434;28;20365;-72
2022/03/11 01:10:06;;;;;;;13.23;9.15;;;8.10;46.60;;;;;;5046945;28;20045;-72
2022/03/11 01:12:32;;;;;;;13.70;9.05;;;8.00;46.90;;;;;;5049546;28;20025;-72
2022/03/11 01:14:57;;;;;;;13.32;8.90;;;8.00;46.90;;;;;;5050507;28;20036;-72
2022/03/11 01:17:23;;;;;;;16.13;9.98;;;8.00;47.00;;;;;;5051177;28;20049;-72
2022/03/11 01:19:48;;;;;;;13.35;9.07;;;7.90;47.10;;;;;;5049785;28;20013;-72
2022/03/11 01:22:14;;;;;;;13.40;9.20;;;7.90;47.30;;;;;;5050558;28;20350;-72
2022/03/11 01:24:39;;;;;;;12.95;9.13;;;7.90;47.50;;;;;;5049541;28;20543;-73
2022/03/11 01:27:05;;;;;;;13.88;8.30;;;7.80;47.60;;;;;;5050792;28;20032;-72
2022/03/11 01:29:31;;;;;;;13.65;9.23;;;7.80;47.50;;;;;;5049919;28;20111;-71
2022/03/11 01:31:57;;;;;;;11.65;8.18;;;7.80;47.70;;;;;;5049230;28;20035;-71
2022/03/11 01:34:22;;;;;;;12.82;9.15;;;7.80;47.60;;;;;;5037852;28;20245;-71
2022/03/11 01:36:48;;;;;;;11.95;8.48;;;7.80;47.90;;;;;;5041478;28;20563;-71
2022/03/11 01:39:14;;;;;;;13.68;9.13;;;7.70;47.80;;;;;;5049916;28;20053;-71
2022/03/11 01:41:39;;;;;;;14.25;8.80;;;7.70;48.00;;;;;;5050333;28;20429;-71
2022/03/11 01:44:10;;;;;;;13.00;8.60;;;7.70;48.20;;;;;;5050048;28;20429;-72
2022/03/11 01:46:36;;;;;;;13.45;9.50;;;7.70;48.30;;;;;;5049136;28;20029;-72
2022/03/11 01:49:05;;;;;;;13.05;8.98;;;7.60;48.60;;;;;;5049424;28;20371;-71
2022/03/11 01:51:33;;;;;;;14.35;9.20;;;7.60;48.50;;;;;;5049873;28;20112;-71
2022/03/11 01:53:59;;;;;;;12.93;9.27;;;7.60;48.60;;;;;;5049676;28;20025;-71
2022/03/11 01:56:25;;;;;;;13.75;8.70;;;7.50;48.70;;;;;;5050498;28;20025;-71
2022/03/11 01:58:53;;;;;;;13.10;9.20;;;7.50;48.80;;;;;;5049657;28;20078;-71
2022/03/11 02:01:19;;;;;;;15.55;10.20;;;7.50;49.10;;;;;;5041087;28;20025;-71
2022/03/11 02:03:45;;;;;;;14.38;10.05;;;7.40;49.20;;;;;;5049605;28;20479;-71
2022/03/11 02:06:13;;;;;;;12.80;8.70;;;7.40;49.20;;;;;;5038675;28;20028;-72
2022/03/11 02:08:39;;;;;;;13.38;9.38;;;7.40;49.30;;;;;;5047592;28;20067;-71
2022/03/11 02:11:06;;;;;;;14.15;9.13;;;7.40;49.30;;;;;;5049590;28;20053;-71
2022/03/11 02:13:45;;;;;;;11.82;8.43;;;7.40;49.40;;;;;;5045676;28;20028;-71
2022/03/11 02:16:14;;;;;;;14.98;9.77;;;7.30;49.30;;;;;;5045274;28;20029;-71
2022/03/11 02:18:41;;;;;;;14.15;10.00;;;7.30;49.60;;;;;;5046532;28;20491;-72
2022/03/11 02:21:07;;;;;;;13.02;9.40;;;7.30;49.80;;;;;;5047602;28;20037;-71
2022/03/11 02:23:59;;;;;;;12.68;9.20;;;7.20;49.80;;;;;;5047655;28;20021;-71
2022/03/11 02:26:28;;;;;;;14.23;8.95;;;7.20;49.90;;;;;;5045902;28;20120;-71
2022/03/11 02:28:55;;;;;;;11.95;9.45;;;7.20;50.20;;;;;;5049167;28;20033;-71
2022/03/11 02:31:23;;;;;;;14.43;9.90;;;7.20;50.40;;;;;;5045349;28;20021;-71
2022/03/11 02:33:49;;;;;;;12.82;9.32;;;7.10;50.40;;;;;;5046216;28;20438;-71
2022/03/11 02:36:14;;;;;;;14.80;10.15;;;7.10;50.30;;;;;;5049210;28;20032;-71
2022/03/11 02:38:40;;;;;;;13.05;9.68;;;7.10;50.50;;;;;;5049665;28;20427;-72
2022/03/11 02:41:06;;;;;;;14.00;9.85;;;7.10;50.60;;;;;;5046661;28;20066;-72
2022/03/11 02:43:32;;;;;;;14.75;10.15;;;7.00;50.60;;;;;;5049405;28;20372;-71
2022/03/11 02:45:58;;;;;;;14.57;10.18;;;7.00;50.80;;;;;;5048375;28;20031;-71
2022/03/11 02:48:23;;;;;;;14.57;10.40;;;7.00;50.80;;;;;;5048090;28;20032;-72
2022/03/11 02:50:49;;;;;;;13.80;9.32;;;7.00;51.00;;;;;;5048548;28;20151;-72
2022/03/11 02:53:15;;;;;;;13.90;10.02;;;6.90;51.00;;;;;;5047927;28;20057;-72
2022/03/11 02:55:40;;;;;;;14.40;10.05;;;6.90;51.20;;;;;;5047824;28;20507;-72
2022/03/11 02:58:06;;;;;;;15.13;9.75;;;6.90;51.40;;;;;;5048305;28;20091;-71
2022/03/11 03:00:31;;;;;;;14.38;10.13;;;6.90;51.40;;;;;;5047619;28;20025;-72
2022/03/11 03:02:57;;;;;;;13.52;9.50;;;6.80;51.60;;;;;;5049029;28;20024;-72
2022/03/11 03:05:22;;;;;;;12.55;8.82;;;6.80;51.60;;;;;;5039347;28;20140;-71
2022/03/11 03:07:48;;;;;;;14.25;10.18;;;6.80;51.70;;;;;;5036918;28;20033;-71
2022/03/11 03:10:13;;;;;;;12.73;9.02;;;6.70;51.80;;;;;;5047572;28;20466;-71
2022/03/11 03:12:40;;;;;;;13.25;8.32;;;6.70;51.90;;;;;;5050311;28;20025;-71
2022/03/11 03:15:09;;;;;;;13.35;9.15;;;6.70;51.90;;;;;;5048311;28;20036;-71
2022/03/11 03:17:35;;;;;;;13.30;8.90;;;6.70;51.90;;;;;;5048190;28;20029;-71
2022/03/11 03:20:03;;;;;;;13.10;8.95;;;6.70;51.80;;;;;;5046904;28;20061;-71
2022/03/11 03:22:28;;;;;;;15.88;10.95;;;6.60;52.00;;;;;;5045775;28;20032;-70
2022/03/11 03:24:54;;;;;;;11.82;8.35;;;6.60;52.10;;;;;;5048557;28;20122;-71
2022/03/11 03:27:19;;;;;;;14.40;9.90;;;6.60;52.10;;;;;;5042303;28;20104;-71
2022/03/11 03:29:45;;;;;;;12.73;9.13;;;6.60;52.40;;;;;;5048591;28;20100;-71
2022/03/11 03:32:10;;;;;;;13.32;9.43;;;6.50;52.20;;;;;;5048144;28;20058;-71
2022/03/11 03:34:37;;;;;;;14.32;10.25;;;6.50;52.40;;;;;;5046526;28;20159;-71
2022/03/11 03:37:08;;;;;;;13.50;9.35;;;6.50;52.50;;;;;;5046412;28;20040;-71
2022/03/11 03:39:35;;;;;;;13.32;9.50;;;6.50;52.60;;;;;;5044841;28;20021;-71
2022/03/11 03:42:00;;;;;;;12.57;9.52;;;6.40;52.50;;;;;;5047805;28;20039;-73
2022/03/11 03:44:26;;;;;;;13.35;9.10;;;6.40;52.60;;;;;;5048333;28;20065;-71
2022/03/11 03:46:52;;;;;;;14.07;9.88;;;6.40;52.50;;;;;;5048428;28;20496;-72
2022/03/11 03:49:18;;;;;;;13.18;9.43;;;6.30;52.70;;;;;;5040892;28;20035;-72
2022/03/11 03:51:44;;;;;;;15.35;10.15;;;6.40;52.80;;;;;;5048775;28;20029;-72
2022/03/11 03:54:10;;;;;;;14.38;9.85;;;6.30;52.90;;;;;;5047395;28;20086;-72
2022/03/11 03:56:36;;;;;;;12.52;9.50;;;6.30;53.10;;;;;;5046518;28;20092;-72
2022/03/11 03:59:06;;;;;;;13.40;10.05;;;6.30;53.00;;;;;;5048231;28;20107;-71
2022/03/11 04:01:33;;;;;;;13.15;9.45;;;6.30;53.70;;;;;;5040769;28;20072;-71
2022/03/11 04:03:59;;;;;;;13.73;8.98;;;6.30;53.20;;;;;;5047178;28;20083;-71
2022/03/11 04:06:24;;;;;;;12.82;8.45;;;6.30;53.00;;;;;;5046903;28;20422;-71
2022/03/11 04:08:50;;;;;;;14.75;8.90;;;6.30;53.10;;;;;;5048322;28;20479;-71
2022/03/11 04:11:16;;;;;;;14.20;10.05;;;6.30;53.20;;;;;;5046632;28;20072;-72
2022/03/11 04:13:42;;;;;;;14.88;9.30;;;6.20;53.30;;;;;;5049108;28;20033;-72
2022/03/11 04:16:07;;;;;;;12.63;8.60;;;6.20;53.40;;;;;;5047322;28;20029;-72
2022/03/11 04:18:33;;;;;;;13.10;8.95;;;6.20;53.40;;;;;;5052449;28;20123;-72
2022/03/11 04:20:58;;;;;;;13.13;8.70;;;6.10;53.40;;;;;;5051193;28;20013;-72
2022/03/11 04:23:24;;;;;;;12.10;8.50;;;6.20;53.40;;;;;;5050355;28;20025;-72
2022/03/11 04:25:49;;;;;;;13.38;8.93;;;6.20;53.50;;;;;;5051564;28;20033;-72
2022/03/11 04:28:15;;;;;;;16.20;9.63;;;6.20;53.40;;;;;;5051692;28;20467;-72
2022/03/11 04:30:40;;;;;;;15.02;9.73;;;6.10;53.60;;;;;;5048215;28;20025;-72
2022/03/11 04:33:06;;;;;;;15.20;10.23;;;6.10;53.60;;;;;;5049609;28;20395;-72
2022/03/11 04:35:31;;;;;;;15.75;9.65;;;6.10;53.60;;;;;;5050689;28;20025;-72
2022/03/11 04:37:58;;;;;;;12.68;9.10;;;6.10;53.50;;;;;;5045437;28;20037;-71
2022/03/11 04:40:24;;;;;;;11.88;8.50;;;6.10;53.60;;;;;;5042541;28;20322;-72
2022/03/11 04:42:49;;;;;;;13.25;9.68;;;6.20;53.60;;;;;;5049665;28;20033;-71
2022/03/11 04:45:15;;;;;;;14.75;9.75;;;6.10;53.50;;;;;;5050999;28;20068;-72
2022/03/11 04:47:40;;;;;;;13.40;8.77;;;6.10;53.70;;;;;;5049314;28;20107;-71
2022/03/11 04:50:06;;;;;;;10.70;7.75;;;6.10;53.50;;;;;;5051687;28;20795;-72
2022/03/11 04:52:33;;;;;;;12.43;8.07;;;6.10;53.50;;;;;;5050064;28;20036;-72
2022/03/11 04:54:59;;;;;;;12.82;8.05;;;6.20;53.50;;;;;;5051554;28;20064;-72
2022/03/11 04:57:24;;;;;;;11.55;7.93;;;6.20;53.50;;;;;;5050203;28;20077;-72
2022/03/11 04:59:49;;;;;;;12.25;8.07;;;6.20;53.40;;;;;;5051355;28;20100;-72
2022/03/11 05:02:24;;;;;;;12.32;9.18;;;6.10;53.50;;;;;;5047981;28;20025;-72
2022/03/11 05:04:49;;;;;;;12.45;8.27;;;6.10;53.60;;;;;;5051598;28;20052;-72
2022/03/11 05:07:15;;;;;;;11.25;8.07;;;6.10;53.60;;;;;;5050369;28;20103;-72
2022/03/11 05:09:40;;;;;;;15.70;9.75;;;6.10;53.70;;;;;;5050997;28;20025;-72
2022/03/11 05:12:06;;;;;;;13.98;8.98;;;6.10;53.80;;;;;;5050571;28;20041;-72
2022/03/11 05:14:32;;;;;;;12.73;8.82;;;6.10;53.70;;;;;;5051305;28;20023;-71
2022/03/11 05:16:58;;;;;;;13.35;8.57;;;6.10;53.90;;;;;;5050017;28;20116;-71
2022/03/11 05:19:24;;;;;;;13.98;9.70;;;6.00;53.90;;;;;;5045032;28;20071;-72
2022/03/11 05:21:50;;;;;;;13.90;9.13;;;6.00;54.10;;;;;;5049702;28;20116;-71
2022/03/11 05:24:15;;;;;;;13.05;9.68;;;6.00;54.00;;;;;;5049298;28;20104;-72
2022/03/11 05:26:41;;;;;;;13.40;8.75;;;6.00;54.00;;;;;;5048606;28;20029;-71
2022/03/11 05:29:07;;;;;;;11.70;8.18;;;6.00;54.10;;;;;;5050569;28;20045;-71
2022/03/11 05:31:32;;;;;;;13.77;9.10;;;6.00;53.90;;;;;;5050173;28;20333;-71
2022/03/11 05:33:58;;;;;;;11.77;8.63;;;6.00;53.90;;;;;;5050206;28;20111;-72
2022/03/11 05:36:23;;;;;;;12.52;8.50;;;6.00;54.10;;;;;;5049725;28;20044;-72
2022/03/11 05:38:49;;;;;;;11.98;8.60;;;6.00;53.90;;;;;;5044707;28;20025;-72
2022/03/11 05:41:15;;;;;;;13.05;9.35;;;6.00;54.00;;;;;;5050349;28;20040;-72
2022/03/11 05:43:41;;;;;;;15.35;9.10;;;6.00;54.10;;;;;;5050184;28;20414;-72
2022/03/11 05:46:07;;;;;;;12.90;8.80;;;6.00;54.10;;;;;;5049114;28;20549;-72
2022/03/11 05:48:33;;;;;;;13.70;9.07;;;6.00;54.20;;;;;;5050049;28;20017;-72
2022/03/11 05:50:58;;;;;;;14.65;9.75;;;6.00;54.20;;;;;;5049813;28;20380;-72
2022/03/11 05:53:24;;;;;;;13.25;8.45;;;6.00;54.20;;;;;;5049560;28;20348;-72
2022/03/11 05:55:49;;;;;;;13.40;8.95;;;6.00;54.10;;;;;;5049876;28;20039;-70
2022/03/11 05:58:15;;;;;;;13.73;9.10;;;6.00;54.00;;;;;;5043573;28;20096;-70
2022/03/11 06:00:40;;;;;;;14.73;9.40;;;6.00;54.30;;;;;;5049989;28;20021;-70
2022/03/11 06:03:06;;;;;;;14.85;9.55;;;5.90;54.30;;;;;;5049294;28;20033;-70
2022/03/11 06:05:32;;;;;;;12.55;8.77;;;5.90;54.30;;;;;;5048558;28;20380;-70
2022/03/11 06:07:57;;;;;;;12.23;8.70;;;5.90;54.40;;;;;;5046051;28;20032;-71
2022/03/11 06:10:23;;;;;;;12.48;8.85;;;5.90;54.50;;;;;;5049370;28;20029;-70
2022/03/11 06:12:48;;;;;;;13.73;9.45;;;5.80;54.40;;;;;;5049289;28;20079;-71
2022/03/11 06:15:15;;;;;;;14.40;9.43;;;5.80;54.50;;;;;;5046764;28;20505;-70
2022/03/11 06:17:41;;;;;;;13.00;8.25;;;5.80;54.60;;;;;;5049060;28;20112;-70
2022/03/11 06:20:08;;;;;;;12.35;8.88;;;5.80;54.50;;;;;;5046689;28;20122;-70
2022/03/11 06:22:36;;;;;;;15.18;9.63;;;5.90;54.60;;;;;;5049878;28;20499;-70
2022/03/11 06:25:05;;;;;;;15.45;9.35;;;5.90;54.70;;;;;;5047203;28;20086;-72
2022/03/11 06:27:30;;;;;;;12.90;8.82;;;5.80;54.60;;;;;;5049182;28;20021;-71
2022/03/11 06:29:56;;;;;;;12.88;8.55;;;5.90;54.70;;;;;;5049290;28;20036;-71
2022/03/11 06:32:21;;;;;;;12.82;9.15;;;5.80;54.60;;;;;;5045784;28;20028;-71
2022/03/11 06:34:48;;;;;;;13.70;8.88;;;5.80;54.60;;;;;;5047752;28;20396;-71
2022/03/11 06:37:16;;;;;;;13.20;9.13;;;5.80;54.60;;;;;;5045689;28;20082;-73
2022/03/11 06:39:42;;;;;;;15.35;9.50;;;5.80;54.70;;;;;;5049289;28;20287;-72
2022/03/11 06:42:08;;;;;;;15.05;9.00;;;5.90;54.80;;;;;;5047438;28;20029;-71
2022/03/11 06:44:33;;;;;;;14.48;9.10;;;5.90;54.80;;;;;;5042495;28;20032;-70
2022/03/11 06:46:59;;;;;;;14.23;9.20;;;5.90;54.80;;;;;;5048033;28;20102;-71
2022/03/11 06:49:24;;;;;;;14.50;9.63;;;5.90;54.60;;;;;;5043857;28;20017;-71
2022/03/11 06:51:50;;;;;;;12.43;8.40;;;5.90;54.70;;;;;;5045271;28;20071;-71
2022/03/11 06:54:15;;;;;;;14.40;10.02;;;6.00;54.50;;;;;;5047048;28;20029;-70
2022/03/11 06:56:41;;;;;;;14.32;9.55;;;6.00;54.50;;;;;;5042676;28;20047;-70
2022/03/11 06:59:08;;;;;;;15.05;9.98;;;6.00;54.50;;;;;;5036802;28;20407;-71
2022/03/11 07:01:33;;;;;;;15.25;9.55;;;6.10;54.40;;;;;;5039947;28;20025;-71
2022/03/11 07:04:01;;;;;;;13.55;9.55;;;6.10;54.30;;;;;;5041530;28;20025;-71
2022/03/11 07:06:26;;;;;;;13.20;9.05;;;6.20;54.20;;;;;;5044409;28;20036;-70
2022/03/11 07:08:52;;;;;;;16.55;10.35;;;6.30;54.10;;;;;;5044455;28;20021;-71
2022/03/11 07:11:17;;;;;;;15.48;9.73;;;6.30;53.80;;;;;;5045199;28;20112;-72
2022/03/11 07:13:44;;;;;;;13.57;9.80;;;6.40;53.70;;;;;;5048264;28;20438;-70
2022/03/11 07:16:10;;;;;;;14.77;9.75;;;6.50;53.40;;;;;;5043965;28;20033;-71
2022/03/11 07:18:35;;;;;;;13.45;8.63;;;6.50;53.20;;;;;;5044774;28;20025;-71
2022/03/11 07:21:01;;;;;;;13.88;9.15;;;6.70;53.20;;;;;;5046934;28;20043;-71
2022/03/11 07:23:28;;;;;;;13.40;9.50;;;6.80;52.90;;;;;;5041859;28;20017;-71
2022/03/11 07:25:53;;;;;;;14.27;8.80;;;6.80;52.60;;;;;;5044787;28;20025;-71
2022/03/11 07:28:20;;;;;;;14.75;9.30;;;6.90;52.50;;;;;;5044876;28;20029;-73
2022/03/11 07:30:46;;;;;;;12.88;9.10;;;7.00;52.40;;;;;;5045977;28;20166;-70
2022/03/11 07:33:12;;;;;;;14.40;9.93;;;7.00;52.10;;;;;;5039349;28;20116;-71
2022/03/11 07:35:38;;;;;;;14.45;9.55;;;7.10;52.00;;;;;;5040625;28;20030;-71
2022/03/11 07:38:04;;;;;;;15.80;10.00;;;7.20;51.80;;;;;;5044414;28;20175;-71
2022/03/11 07:40:29;;;;;;;15.65;10.50;;;7.30;51.70;;;;;;5045181;28;20112;-71
2022/03/11 07:42:55;;;;;;;12.77;9.38;;;7.30;51.50;;;;;;5048457;28;20047;-71
2022/03/11 07:45:21;;;;;;;12.45;8.77;;;7.40;51.40;;;;;;5040555;28;20029;-71
2022/03/11 07:47:46;;;;;;;15.13;10.40;;;7.50;51.20;;;;;;5039993;28;20018;-71
2022/03/11 07:50:12;;;;;;;21.35;9.85;;;7.50;50.90;;;;;;5045981;28;20379;-71
2022/03/11 07:52:39;;;;;;;16.00;9.75;;;7.60;51.00;;;;;;5050408;28;20049;-72
2022/03/11 07:55:07;;;;;;;18.00;11.30;;;7.70;50.70;;;;;;5040677;28;20021;-71
2022/03/11 07:57:32;;;;;;;15.93;10.48;;;7.70;50.50;;;;;;5050011;28;20120;-72
2022/03/11 08:00:00;;;;;;;14.48;10.27;;;7.80;50.40;;;;;;5051262;28;20120;-72
2022/03/11 08:02:27;;;;;;;15.18;10.77;;;7.80;50.20;;;;;;5046461;28;20160;-72
2022/03/11 08:04:53;;;;;;;13.25;9.15;;;7.90;50.20;;;;;;5048173;28;20379;-72
2022/03/11 08:07:18;;;;;;;15.55;10.05;;;7.90;50.20;;;;;;5043121;28;20082;-72
2022/03/11 08:09:44;;;;;;;17.90;10.75;;;8.10;50.20;;;;;;5051990;28;20467;-71
2022/03/11 08:12:09;;;;;;;13.23;8.88;;;8.10;50.00;;;;;;5046466;28;20021;-71
2022/03/11 08:14:35;;;;;;;14.20;9.98;;;8.10;49.90;;;;;;5044559;28;20025;-71
2022/03/11 08:17:01;;;;;;;16.90;10.40;;;8.20;49.60;;;;;;5049795;28;20361;-72
2022/03/11 08:19:26;;;;;;;18.08;12.30;;;8.30;49.70;;;;;;5048363;28;20025;-72
2022/03/11 08:21:52;;;;;;;15.48;10.95;;;8.40;49.60;;;;;;5048161;28;20507;-73
2022/03/11 08:24:19;;;;;;;17.88;11.75;;;8.40;49.40;;;;;;5048277;28;20096;-70
2022/03/11 08:26:45;;;;;;;18.80;12.38;;;8.40;49.40;;;;;;5048463;28;20039;-71
2022/03/11 08:29:11;;;;;;;16.45;10.63;;;8.50;49.50;;;;;;5051497;28;20021;-70
2022/03/11 08:31:37;;;;;;;14.98;10.63;;;8.60;49.30;;;;;;5050962;28;20067;-73
2022/03/11 08:34:03;;;;;;;16.85;11.88;;;8.60;49.00;;;;;;5041791;28;20029;-72
2022/03/11 08:36:29;;;;;;;17.63;11.95;;;8.70;48.90;;;;;;5044755;28;20021;-72
2022/03/11 08:38:54;;;;;;;18.15;11.95;;;8.70;48.70;;;;;;5048574;28;20368;-72
2022/03/11 08:41:22;;;;;;;16.02;10.80;;;8.80;48.50;;;;;;5044018;28;20450;-72
2022/03/11 08:43:49;;;;;;;16.77;11.35;;;8.80;48.50;;;;;;5048832;28;20033;-73
2022/03/11 08:46:15;;;;;;;17.60;11.57;;;8.90;48.40;;;;;;5039281;28;20113;-73
2022/03/11 08:48:41;;;;;;;17.88;11.50;;;9.00;48.40;;;;;;5045700;28;20025;-71
2022/03/11 08:51:07;;;;;;;18.70;11.23;;;9.00;48.20;;;;;;5042275;28;20029;-71
2022/03/11 08:53:33;;;;;;;17.98;10.55;;;9.10;48.10;;;;;;5049595;28;20020;-72
2022/03/11 08:55:58;;;;;;;16.40;11.02;;;9.20;47.90;;;;;;5047000;28;20037;-71
2022/03/11 08:58:24;;;;;;;17.33;11.50;;;9.20;47.70;;;;;;5051509;28;20029;-71
2022/03/11 09:00:49;;;;;;;17.77;11.98;;;9.20;47.10;;;;;;5046766;28;20051;-71
2022/03/11 09:03:15;;;;;;;17.58;11.40;;;9.30;47.20;;;;;;5051191;28;20079;-69
2022/03/11 09:05:40;;;;;;;20.20;11.90;;;9.30;47.00;;;;;;5048321;28;20021;-71
2022/03/11 09:08:09;;;;;;;16.20;11.40;;;9.40;47.20;;;;;;5046444;28;20029;-70
2022/03/11 09:10:35;;;;;;;18.73;12.05;;;9.50;47.00;;;;;;5047141;28;20391;-71
2022/03/11 09:13:01;;;;;;;17.10;11.27;;;9.50;46.90;;;;;;5047022;28;20021;-70
2022/03/11 09:15:27;;;;;;;16.33;11.52;;;9.60;46.80;;;;;;5048303;28;20557;-71
2022/03/11 09:17:52;;;;;;;19.23;12.93;;;9.60;46.70;;;;;;5046357;28;20079;-71
2022/03/11 09:20:18;;;;;;;19.05;11.80;;;9.70;46.70;;;;;;5046708;28;20040;-71
2022/03/11 09:22:44;;;;;;;17.67;11.73;;;9.80;46.60;;;;;;5047083;28;20025;-71
2022/03/11 09:25:11;;;;;;;20.67;12.90;;;9.80;46.20;;;;;;5045412;28;20021;-71
2022/03/11 09:27:37;;;;;;;19.50;13.20;;;9.80;45.90;;;;;;5050133;28;20487;-71
2022/03/11 09:30:07;;;;;;;20.42;13.98;;;9.80;46.00;;;;;;5043476;28;20056;-72
2022/03/11 09:32:34;;;;;;;21.13;14.63;;;9.80;46.00;;;;;;5048168;28;20111;-70
2022/03/11 09:34:59;;;;;;;19.38;11.70;;;9.80;45.90;;;;;;5048226;28;20028;-71
2022/03/11 09:37:26;;;;;;;23.10;14.15;;;9.90;46.10;;;;;;5044379;28;20047;-71
2022/03/11 09:39:51;;;;;;;22.27;12.63;;;9.90;45.90;;;;;;5049265;28;20474;-71
2022/03/11 09:42:17;;;;;;;21.30;13.93;;;9.90;45.80;;;;;;5048057;28;20036;-70
2022/03/11 09:44:50;;;;;;;19.23;13.07;;;10.00;45.90;;;;;;5049189;28;20031;-71
2022/03/11 09:47:16;;;;;;;17.67;12.18;;;10.10;45.70;;;;;;5044348;28;20024;-72
2022/03/11 09:49:42;;;;;;;18.45;11.88;;;10.10;45.60;;;;;;5048189;28;20013;-71
2022/03/11 09:52:09;;;;;;;19.10;12.23;;;10.20;46.10;;;;;;5047705;28;20649;-71
2022/03/11 09:54:34;;;;;;;22.40;13.60;;;10.30;45.40;;;;;;5041537;28;20024;-70
2022/03/11 09:57:00;;;;;;;19.02;13.15;;;10.30;45.30;;;;;;5049512;28;20052;-71
2022/03/11 09:59:27;;;;;;;21.17;13.65;;;10.30;45.20;;;;;;5049082;28;20040;-71
2022/03/11 10:01:53;;;;;;;21.30;13.60;;;10.30;45.20;;;;;;5044137;28;20040;-71
2022/03/11 10:04:20;;;;;;;21.77;13.20;;;10.40;45.10;;;;;;5046509;28;20499;-72
2022/03/11 10:06:47;;;;;;;17.48;12.57;;;10.60;45.30;;;;;;5050074;28;20047;-73
2022/03/11 10:09:19;;;;;;;18.27;12.32;;;10.60;45.10;;;;;;5044997;28;20025;-72
2022/03/11 10:11:49;;;;;;;16.95;12.38;;;10.70;44.80;;;;;;5044099;28;20039;-71
2022/03/11 10:14:16;;;;;;;18.83;12.45;;;10.80;44.60;;;;;;5045434;28;20068;-71
2022/03/11 10:16:44;;;;;;;17.00;12.25;;;10.80;44.80;;;;;;5045483;28;20418;-72
2022/03/11 10:19:15;;;;;;;16.80;11.55;;;10.90;44.70;;;;;;5047689;28;20086;-72
2022/03/11 10:21:43;;;;;;;19.80;13.20;;;11.00;44.60;;;;;;5043995;28;20021;-71
2022/03/11 10:24:11;;;;;;;20.40;13.23;;;11.00;44.60;;;;;;5048313;28;20039;-73
2022/03/11 10:26:39;;;;;;;20.50;12.45;;;11.10;44.50;;;;;;5048332;28;20028;-73
2022/03/11 10:29:08;;;;;;;18.65;13.52;;;11.10;44.20;;;;;;5049660;28;20471;-73
2022/03/11 10:31:37;;;;;;;21.52;13.35;;;11.10;44.10;;;;;;5044739;28;20051;-71
2022/03/11 10:34:24;;;;;;;19.55;13.85;;;11.20;44.30;;;;;;5049926;28;20426;-72
2022/03/11 10:37:00;;;;;;;19.02;13.15;;;11.20;44.30;;;;;;5045693;28;20031;-73
2022/03/11 10:39:31;;;;;;;18.75;12.82;;;11.30;44.30;;;;;;5039302;28;20025;-73
2022/03/11 10:42:00;;;;;;;22.45;13.75;;;11.40;44.20;;;;;;5047655;28;20124;-72
2022/03/11 10:44:27;;;;;;;22.55;14.40;;;11.40;44.10;;;;;;5045398;28;20020;-73
2022/03/11 10:46:54;;;;;;;18.60;12.60;;;11.50;43.90;;;;;;5049174;28;20112;-73
2022/03/11 10:49:25;;;;;;;19.60;13.00;;;11.50;44.10;;;;;;5048738;28;20021;-73
2022/03/11 10:51:52;;;;;;;18.20;12.85;;;11.60;43.90;;;;;;5047159;28;20033;-71
2022/03/11 10:54:17;;;;;;;20.60;14.18;;;11.70;43.90;;;;;;5048808;28;20017;-72
2022/03/11 10:56:43;;;;;;;16.88;12.10;;;11.70;44.00;;;;;;5045055;28;20035;-72
2022/03/11 10:59:20;;;;;;;17.92;12.60;;;11.80;43.80;;;;;;5043296;28;20009;-71
2022/03/11 11:01:46;;;;;;;17.67;12.00;;;11.90;43.70;;;;;;5043858;28;20475;-72
2022/03/11 11:04:14;;;;;;;19.42;14.15;;;12.00;43.50;;;;;;5049109;28;20017;-72
2022/03/11 11:06:39;;;;;;;21.25;14.10;;;12.10;43.10;;;;;;5046259;28;20029;-72
2022/03/11 11:09:07;;;;;;;18.83;11.85;;;12.00;43.30;;;;;;5048151;28;20017;-71
2022/03/11 11:11:34;;;;;;;19.02;13.15;;;12.10;43.40;;;;;;5047776;28;20032;-72
2022/03/11 11:14:04;;;;;;;17.90;12.73;;;12.20;43.20;;;;;;5049075;28;20402;-73
2022/03/11 11:16:31;;;;;;;19.70;12.63;;;12.30;43.00;;;;;;5046131;28;20025;-71
2022/03/11 11:18:58;;;;;;;19.35;13.40;;;12.30;43.20;;;;;;5048460;28;20033;-72
2022/03/11 11:21:25;;;;;;;17.55;12.05;;;12.30;42.90;;;;;;5048312;28;20368;-72
2022/03/11 11:23:57;;;;;;;19.27;13.50;;;12.40;43.00;;;;;;5044355;28;20044;-72
2022/03/11 11:26:24;;;;;;;22.52;14.65;;;12.60;42.60;;;;;;5051466;28;20499;-72
2022/03/11 11:28:55;;;;;;;19.00;13.50;;;12.50;42.50;;;;;;5052879;28;20025;-71
2022/03/11 11:31:22;;;;;;;21.60;14.02;;;12.40;42.40;;;;;;5051932;28;20049;-72
2022/03/11 11:33:49;;;;;;;19.98;13.52;;;12.40;42.50;;;;;;5052430;28;20446;-71
2022/03/11 11:36:32;;;;;;;21.38;13.50;;;12.50;42.80;;;;;;5048074;28;20067;-71
2022/03/11 11:39:05;;;;;;;21.08;12.88;;;12.50;42.60;;;;;;5050096;28;20032;-71
2022/03/11 11:41:33;;;;;;;19.70;13.57;;;12.60;42.60;;;;;;5051900;28;20028;-72
2022/03/11 11:44:08;;;;;;;18.50;13.10;;;12.70;42.30;;;;;;5050687;28;20115;-72
2022/03/11 11:46:36;;;;;;;25.30;15.52;;;12.80;42.00;;;;;;5049918;28;20281;-72
2022/03/11 11:49:13;;;;;;;21.35;14.15;;;12.80;41.70;;;;;;5051619;28;20120;-72
2022/03/11 11:51:38;;;;;;;21.48;14.13;;;12.90;41.80;;;;;;5048934;28;20025;-72
2022/03/11 11:54:14;;;;;;;21.67;14.07;;;12.90;41.60;;;;;;5051794;28;20357;-72
2022/03/11 11:56:45;;;;;;;21.70;14.88;;;12.90;41.70;;;;;;5050263;28;20033;-72
2022/03/11 11:59:17;;;;;;;21.83;13.85;;;13.00;41.70;;;;;;5051458;28;20031;-72
2022/03/11 12:01:44;;;;;;;19.35;14.10;;;13.10;41.50;;;;;;5048502;28;20491;-72
2022/03/11 12:04:37;;;;;;;22.65;14.55;;;13.10;41.40;;;;;;5050711;28;20032;-72
2022/03/11 12:07:10;;;;;;;20.70;14.25;;;13.10;41.50;;;;;;5048469;28;20044;-71
2022/03/11 12:09:38;;;;;;;20.75;12.75;;;13.20;41.40;;;;;;5047943;28;20033;-71
2022/03/11 12:12:07;;;;;;;21.63;14.52;;;13.30;41.20;;;;;;5048496;28;20056;-71
2022/03/11 12:14:59;;;;;;;23.95;14.82;;;13.30;41.00;;;;;;5045127;28;20077;-72
2022/03/11 12:17:55;;;;;;;18.83;13.23;;;13.30;40.50;;;;;;5049436;28;20058;-71
2022/03/11 12:20:33;;;;;;;18.73;12.88;;;13.30;40.50;;;;;;5049525;28;20059;-73
2022/03/11 12:23:05;;;;;;;19.05;12.93;;;13.40;40.80;;;;;;5045698;28;20059;-73
2022/03/11 12:25:36;;;;;;;19.80;13.30;;;13.60;41.00;;;;;;5045497;28;20033;-72
2022/03/11 12:28:12;;;;;;;21.38;14.00;;;13.80;40.90;;;;;;5051100;28;20415;-72
2022/03/11 12:30:42;;;;;;;21.42;13.57;;;13.80;40.40;;;;;;5048580;28;20567;-72
2022/03/11 12:33:14;;;;;;;20.08;13.77;;;13.90;40.40;;;;;;5048522;28;20048;-73
2022/03/11 12:35:40;;;;;;;22.55;14.48;;;14.00;40.10;;;;;;5046349;28;20506;-71
2022/03/11 12:38:11;;;;;;;23.00;13.55;;;14.10;39.50;;;;;;5050898;28;20453;-72
2022/03/11 12:40:36;;;;;;;17.80;12.95;;;13.90;39.80;;;;;;5048328;28;20028;-72